Time;durP1;ratioP1;P1;durP2;ratioP2;P2;SDS_P1;SDS_P2;PMS_P1;PMS_P2;Temp;Humidity;BMP_temperature;BMP_pressure;BME280_temperature;BME280_humidity;BME280_pressure;Samples;Min_cycle;Max_cycle;Signal;HPM_P1;HPM_P2
2022/10/02 00:03:10;;;;;;;36.93;27.32;;;;;;;15.34;90.47;100002.13;1840272;77;21177;-58
2022/10/02 00:06:24;;;;;;;36.03;27.67;;;;;;;15.37;90.52;100000.31;1818384;77;21180;-56
2022/10/02 00:09:41;;;;;;;38.48;27.90;;;;;;;15.40;90.57;99993.87;1840297;76;21196;-57
2022/10/02 00:12:48;;;;;;;36.68;27.55;;;;;;;15.44;90.60;99996.53;1840223;77;21133;-57
2022/10/02 00:15:54;;;;;;;42.43;30.48;;;;;;;15.48;90.64;99988.12;1842804;78;21740;-56
2022/10/02 00:19:02;;;;;;;35.78;26.75;;;;;;;15.53;90.67;99991.08;1833334;78;21193;-56
2022/10/02 00:22:27;;;;;;;36.13;27.87;;;;;;;15.57;90.70;99981.29;1814877;78;21197;-58
2022/10/02 00:26:05;;;;;;;34.65;27.00;;;;;;;15.61;90.71;99985.33;1842808;76;21193;-56
2022/10/02 00:29:33;;;;;;;39.45;28.00;;;;;;;15.65;90.74;99979.67;1833734;78;21189;-56
2022/10/02 00:33:04;;;;;;;36.63;27.82;;;;;;;15.69;90.75;99974.05;1842895;78;21149;-57
2022/10/02 00:36:46;;;;;;;35.70;27.75;;;;;;;15.72;90.77;99977.73;1810848;77;21161;-57
2022/10/02 00:40:16;;;;;;;36.50;27.32;;;;;;;15.75;90.77;99977.82;1842742;78;21192;-57
2022/10/02 00:43:37;;;;;;;37.75;28.38;;;;;;;15.78;90.79;99981.00;1830333;77;21382;-57
2022/10/02 00:47:15;;;;;;;40.70;29.10;;;;;;;15.82;90.82;99978.66;1833387;78;21165;-58
2022/10/02 00:50:25;;;;;;;41.23;28.87;;;;;;;15.83;90.80;99972.91;1814972;78;21204;-57
2022/10/02 00:53:56;;;;;;;39.05;28.27;;;;;;;15.84;90.78;99948.37;1833706;77;21204;-57
2022/10/02 00:57:15;;;;;;;37.42;27.93;;;;;;;15.85;90.77;99946.47;1842624;78;21193;-59
2022/10/02 01:00:24;;;;;;;39.23;28.83;;;;;;;15.85;90.80;99948.70;1833574;77;21204;-58
2022/10/02 01:03:35;;;;;;;42.48;30.30;;;;;;;15.84;90.78;99950.30;1842737;76;21193;-58
2022/10/02 01:06:42;;;;;;;38.50;30.12;;;;;;;15.82;90.73;99940.87;1833544;78;21177;-58
2022/10/02 01:09:50;;;;;;;41.95;30.50;;;;;;;15.80;90.69;99938.85;1834011;77;21328;-57
2022/10/02 01:12:59;;;;;;;42.08;30.62;;;;;;;15.78;90.68;99933.22;1842733;78;21227;-58
2022/10/02 01:16:05;;;;;;;40.78;31.00;;;;;;;15.77;90.68;99932.40;1832944;78;21179;-58
2022/10/02 01:19:12;;;;;;;40.45;30.23;;;;;;;15.76;90.69;99929.30;1834068;77;21243;-57
2022/10/02 01:22:44;;;;;;;42.88;31.45;;;;;;;15.75;90.71;99924.86;1833977;77;21177;-57
2022/10/02 01:25:52;;;;;;;44.42;33.73;;;;;;;15.74;90.76;99905.77;1842826;78;21192;-57
2022/10/02 01:29:00;;;;;;;45.73;32.88;;;;;;;15.72;90.82;99899.09;1832882;78;21224;-56
2022/10/02 01:32:17;;;;;;;47.03;33.88;;;;;;;15.71;90.85;99890.51;1842915;78;21879;-58
2022/10/02 01:35:30;;;;;;;44.15;33.95;;;;;;;15.69;90.90;99881.59;1833737;78;21271;-58
2022/10/02 01:38:37;;;;;;;44.18;34.25;;;;;;;15.67;90.92;99883.72;1815366;76;21181;-57
2022/10/02 01:41:47;;;;;;;48.63;36.17;;;;;;;15.67;90.99;99872.68;1812192;78;21157;-62
2022/10/02 01:44:53;;;;;;;52.93;36.75;;;;;;;15.66;91.04;99864.10;1842647;78;21164;-57
2022/10/02 01:48:17;;;;;;;44.25;34.80;;;;;;;15.65;91.05;99853.29;1833773;78;21220;-58
2022/10/02 01:51:55;;;;;;;44.13;34.03;;;;;;;15.64;91.03;99853.81;1833509;78;21161;-58
2022/10/02 01:55:31;;;;;;;44.08;34.60;;;;;;;15.60;91.01;99851.16;1833688;78;21201;-58
2022/10/02 01:58:57;;;;;;;48.73;36.45;;;;;;;15.56;90.99;99845.79;1836851;76;21181;-57
2022/10/02 02:02:11;;;;;;;49.33;36.50;;;;;;;15.52;90.98;99837.66;1833410;78;21200;-57
2022/10/02 02:05:46;;;;;;;52.40;38.90;;;;;;;15.48;90.98;99835.02;1842932;78;21181;-56
2022/10/02 02:09:49;;;;;;;45.88;36.15;;;;;;;15.46;90.98;99835.75;1833743;78;21212;-57
2022/10/02 02:13:07;;;;;;;46.48;36.90;;;;;;;15.41;90.99;99827.33;1840592;77;21165;-57
2022/10/02 02:16:32;;;;;;;48.30;37.55;;;;;;;15.36;91.00;99820.73;1822483;77;21704;-58
2022/10/02 02:20:00;;;;;;;52.90;39.40;;;;;;;15.30;90.96;99801.75;1842908;78;21208;-58
2022/10/02 02:23:12;;;;;;;58.13;42.03;;;;;;;15.26;90.96;99794.15;1833716;78;21259;-57
2022/10/02 02:26:21;;;;;;;63.85;44.77;;;;;;;15.24;91.02;99788.03;1843077;77;21177;-57
2022/10/02 02:29:29;;;;;;;67.53;46.10;;;;;;;15.21;91.10;99787.06;1822624;78;21181;-57
2022/10/02 02:32:40;;;;;;;71.87;47.13;;;;;;;15.21;91.24;99787.92;1819105;78;21690;-57
2022/10/02 02:35:54;;;;;;;65.65;48.60;;;;;;;15.23;91.37;99787.70;1818273;78;21205;-58
2022/10/02 02:39:16;;;;;;;71.47;48.13;;;;;;;15.25;91.50;99784.20;1817857;78;21236;-59
2022/10/02 02:42:22;;;;;;;70.28;49.23;;;;;;;15.25;91.58;99774.02;1817697;78;21166;-56
2022/10/02 02:45:31;;;;;;;71.82;47.60;;;;;;;15.26;91.60;99761.91;1817550;79;21181;-57
2022/10/02 02:48:45;;;;;;;72.42;49.58;;;;;;;15.25;91.64;99756.62;1817642;79;21173;-57
2022/10/02 02:51:50;;;;;;;69.95;47.83;;;;;;;15.24;91.67;99755.77;1817755;78;21182;-57
2022/10/02 02:55:15;;;;;;;75.45;50.20;;;;;;;15.24;91.71;99753.56;1817610;79;21220;-57
2022/10/02 02:58:29;;;;;;;66.55;47.60;;;;;;;15.24;91.72;99749.42;1817415;79;21213;-58
2022/10/02 03:01:33;;;;;;;;;;;;;;;15.23;91.78;99748.57;1801844;79;21165;-58
2022/10/02 03:04:39;;;;;;;67.58;45.15;;;;;;;15.22;91.80;99744.66;1817228;79;20176;-58
2022/10/02 03:07:45;;;;;;;67.17;46.53;;;;;;;15.23;91.89;99747.19;1817357;79;21169;-57
2022/10/02 03:11:11;;;;;;;69.62;47.25;;;;;;;15.24;91.94;99739.22;1817513;79;21178;-57
2022/10/02 03:14:43;;;;;;;61.63;46.53;;;;;;;15.26;91.99;99735.72;1817700;79;21340;-57
2022/10/02 03:17:57;;;;;;;62.50;45.03;;;;;;;15.30;92.03;99728.67;1817930;78;21201;-58
2022/10/02 03:21:16;;;;;;;68.25;45.88;;;;;;;15.33;92.07;99722.75;1817781;79;21347;-58
2022/10/02 03:24:30;;;;;;;59.40;45.43;;;;;;;15.35;92.11;99717.00;1817589;79;21170;-58
2022/10/02 03:28:04;;;;;;;61.13;45.10;;;;;;;15.37;92.12;99714.32;1817560;79;21201;-58
2022/10/02 03:31:11;;;;;;;68.20;44.48;;;;;;;15.39;92.15;99705.33;1828068;78;21209;-57
2022/10/02 03:34:17;;;;;;;61.00;45.33;;;;;;;15.40;92.18;99698.73;1840358;77;21204;-57
2022/10/02 03:37:24;;;;;;;55.50;41.58;;;;;;;15.42;92.19;99695.23;1833742;78;21165;-58
2022/10/02 03:40:30;;;;;;;59.77;44.13;;;;;;;15.42;92.23;99698.51;1830264;77;21208;-57
2022/10/02 03:43:36;;;;;;;53.95;43.15;;;;;;;15.44;92.25;99695.86;1768860;79;21744;-57
2022/10/02 03:46:42;;;;;;;66.92;43.50;;;;;;;15.45;92.25;99692.02;1769624;81;21240;-59
2022/10/02 03:49:48;;;;;;;59.35;42.90;;;;;;;15.46;92.25;99700.59;1769961;79;22249;-58
2022/10/02 03:52:58;;;;;;;63.90;43.33;;;;;;;15.48;92.28;99716.39;1769413;81;21247;-58
2022/10/02 03:56:18;;;;;;;54.88;42.23;;;;;;;15.50;92.29;99718.41;1769187;81;21185;-57
2022/10/02 03:59:32;;;;;;;55.58;41.10;;;;;;;15.53;92.33;99727.61;1731133;81;21291;-58
2022/10/02 04:03:01;;;;;;;53.00;41.23;;;;;;;15.56;92.37;99721.64;1722236;81;21177;-58
2022/10/02 04:06:17;;;;;;;52.88;39.55;;;;;;;15.59;92.38;99707.92;1753219;81;21216;-58
2022/10/02 04:09:33;;;;;;;55.12;39.75;;;;;;;15.62;92.38;99695.08;1752564;80;21245;-59
2022/10/02 04:12:48;;;;;;;55.90;39.98;;;;;;;15.63;92.36;99703.13;1772762;80;21213;-58
2022/10/02 04:16:11;;;;;;;51.77;37.45;;;;;;;15.66;92.35;99686.13;1793686;79;21169;-58
2022/10/02 04:19:45;;;;;;;51.37;36.70;;;;;;;15.68;92.40;99683.96;1731378;82;21291;-57
2022/10/02 04:22:58;;;;;;;46.83;35.05;;;;;;;15.71;92.44;99676.64;1743925;81;21201;-57
2022/10/02 04:26:26;;;;;;;45.70;35.55;;;;;;;15.74;92.50;99672.57;1761265;80;21180;-57
2022/10/02 04:29:41;;;;;;;48.25;36.20;;;;;;;15.76;92.59;99678.16;1754754;79;21201;-56
2022/10/02 04:32:48;;;;;;;41.92;34.15;;;;;;;15.79;92.65;99668.59;1800436;78;21189;-57
2022/10/02 04:36:11;;;;;;;51.00;32.73;;;;;;;15.82;92.66;99664.86;1754028;80;21201;-57
2022/10/02 04:39:24;;;;;;;42.90;33.65;;;;;;;15.84;92.68;99657.17;1769964;79;21229;-56
2022/10/02 04:42:45;;;;;;;39.83;31.97;;;;;;;15.87;92.71;99659.47;1781102;79;21343;-57
2022/10/02 04:46:13;;;;;;;43.48;33.42;;;;;;;15.90;92.71;99664.53;1771946;80;21205;-57
2022/10/02 04:49:33;;;;;;;37.98;29.92;;;;;;;15.91;92.74;99660.73;1740840;80;21243;-57
2022/10/02 04:53:19;;;;;;;41.08;30.60;;;;;;;15.94;92.77;99657.50;1787852;79;21180;-56
2022/10/02 04:56:45;;;;;;;37.20;28.85;;;;;;;15.97;92.73;99661.72;1781055;80;21174;-57
2022/10/02 05:00:02;;;;;;;34.10;27.52;;;;;;;16.00;92.75;99651.06;1760602;79;21359;-56
2022/10/02 05:03:46;;;;;;;34.63;28.25;;;;;;;16.02;92.73;99644.78;1783882;79;21185;-56
2022/10/02 05:07:13;;;;;;;33.88;26.23;;;;;;;16.03;92.74;99638.73;1775354;79;21174;-56
2022/10/02 05:10:48;;;;;;;33.88;25.10;;;;;;;16.06;92.75;99629.99;1764786;81;21208;-56
2022/10/02 05:14:29;;;;;;;34.18;25.57;;;;;;;16.09;92.73;99625.39;1783103;79;21379;-55
2022/10/02 05:18:13;;;;;;;36.05;26.40;;;;;;;16.10;92.75;99625.69;1810842;79;21192;-55
2022/10/02 05:21:40;;;;;;;33.00;23.98;;;;;;;16.10;92.72;99612.73;1788846;79;21198;-56
2022/10/02 05:25:23;;;;;;;30.62;24.82;;;;;;;16.11;92.73;99577.13;1797638;78;21200;-56
2022/10/02 05:28:52;;;;;;;35.03;24.90;;;;;;;16.13;92.78;99573.61;1809631;78;21547;-56
2022/10/02 05:32:22;;;;;;;33.92;25.88;;;;;;;16.17;92.82;99583.11;1777100;78;21204;-57
2022/10/02 05:35:56;;;;;;;31.25;26.02;;;;;;;16.21;92.83;99592.62;1792658;79;21267;-57
2022/10/02 05:39:26;;;;;;;32.80;25.77;;;;;;;16.25;92.87;99597.98;1782977;78;21236;-58
2022/10/02 05:42:45;;;;;;;35.60;25.68;;;;;;;16.27;92.87;99606.89;1771372;79;21734;-56
2022/10/02 05:46:02;;;;;;;32.75;23.80;;;;;;;16.30;92.83;99608.33;1769046;80;21746;-56
2022/10/02 05:49:31;;;;;;;28.42;23.67;;;;;;;16.31;92.84;99609.52;1766623;80;21217;-56
2022/10/02 05:53:05;;;;;;;29.70;23.67;;;;;;;16.33;92.85;99617.56;1766775;80;21178;-56
2022/10/02 05:56:45;;;;;;;30.60;22.98;;;;;;;16.35;92.84;99615.39;1745220;81;21702;-56
2022/10/02 06:00:32;;;;;;;33.65;22.02;;;;;;;16.37;92.87;99601.67;1776819;78;21707;-56
2022/10/02 06:03:56;;;;;;;26.52;20.72;;;;;;;16.40;92.85;99592.92;1774146;79;21955;-56
2022/10/02 06:07:05;;;;;;;;;;;;;;;16.44;92.81;99567.91;1772011;79;21268;-55
2022/10/02 06:10:15;;;;;;;29.77;21.37;;;;;;;16.48;92.80;99559.16;1767664;80;20202;-56
2022/10/02 06:13:42;;;;;;;27.80;22.02;;;;;;;16.51;92.88;99558.16;1737270;82;21753;-56
2022/10/02 06:17:00;;;;;;;30.17;23.25;;;;;;;16.56;92.88;99538.11;1738228;81;21201;-55
2022/10/02 06:20:45;;;;;;;26.48;22.07;;;;;;;16.59;92.87;99530.72;1737464;81;21744;-55
2022/10/02 06:23:54;;;;;;;26.23;22.05;;;;;;;16.63;92.85;99520.37;1766890;80;21224;-56
2022/10/02 06:27:19;;;;;;;29.25;24.72;;;;;;;16.66;92.85;99508.84;1741847;81;21216;-58
2022/10/02 06:30:25;;;;;;;28.83;23.67;;;;;;;16.70;92.86;99507.84;1738758;80;21276;-58
2022/10/02 06:33:32;;;;;;;29.60;24.35;;;;;;;16.71;92.84;99491.02;1748561;80;21257;-57
2022/10/02 06:37:11;;;;;;;28.35;24.25;;;;;;;16.73;92.84;99472.81;1748133;82;21212;-58
2022/10/02 06:40:46;;;;;;;30.17;23.55;;;;;;;16.73;92.82;99475.02;1786105;79;21243;-58
2022/10/02 06:44:35;;;;;;;29.52;25.12;;;;;;;16.74;92.77;99484.16;1748179;82;21196;-57
2022/10/02 06:47:53;;;;;;;28.90;24.63;;;;;;;16.75;92.78;99474.25;1752592;80;21245;-57
2022/10/02 06:51:27;;;;;;;28.92;24.70;;;;;;;16.74;92.79;99467.05;1773301;80;21275;-58
2022/10/02 06:54:56;;;;;;;29.63;24.77;;;;;;;16.76;92.90;99459.90;1769269;79;21221;-57
2022/10/02 06:58:44;;;;;;;29.42;24.23;;;;;;;16.79;92.99;99445.59;1770452;80;21220;-58
2022/10/02 07:02:09;;;;;;;29.67;24.10;;;;;;;16.82;93.09;99443.73;1739099;81;21216;-57
2022/10/02 07:05:27;;;;;;;;;;;;;;;16.85;93.15;99437.20;1740950;81;21233;-56
2022/10/02 07:08:57;;;;;;;27.65;23.32;;;;;;;16.88;93.17;99445.01;1742337;81;20241;-57
2022/10/02 07:12:28;;;;;;;28.98;24.10;;;;;;;16.89;93.22;99445.83;1742178;81;21277;-57
2022/10/02 07:15:48;;;;;;;26.45;22.32;;;;;;;16.91;93.27;99441.77;1739066;81;21197;-57
2022/10/02 07:19:35;;;;;;;27.55;22.20;;;;;;;16.95;93.34;99431.89;1737981;81;21272;-57
2022/10/02 07:22:55;;;;;;;27.98;22.85;;;;;;;16.98;93.37;99421.73;1741666;81;21256;-58
2022/10/02 07:26:31;;;;;;;29.85;23.55;;;;;;;17.01;93.37;99433.72;1738557;81;21257;-56
2022/10/02 07:30:16;;;;;;;26.93;22.60;;;;;;;17.01;93.40;99432.34;1742913;81;21197;-56
2022/10/02 07:33:29;;;;;;;34.33;25.77;;;;;;;17.02;93.46;99412.42;1741527;80;21717;-55
2022/10/02 07:37:04;;;;;;;34.00;24.50;;;;;;;17.00;93.39;99407.70;1780758;80;21653;-57
2022/10/02 07:40:34;;;;;;;29.18;23.18;;;;;;;17.00;93.39;99411.28;1743097;80;21426;-56
2022/10/02 07:44:03;;;;;;;30.72;24.15;;;;;;;17.01;93.39;99410.75;1708957;82;21216;-58
2022/10/02 07:47:29;;;;;;;30.97;23.38;;;;;;;16.98;93.33;99401.00;1744914;80;21201;-57
2022/10/02 07:51:04;;;;;;;31.60;23.67;;;;;;;16.95;93.29;99397.89;1737650;81;21213;-58
2022/10/02 07:54:18;;;;;;;30.27;23.30;;;;;;;16.94;93.40;99398.95;1734210;80;21291;-57
2022/10/02 07:57:29;;;;;;;28.92;22.90;;;;;;;16.94;93.49;99390.13;1758675;81;21180;-56
2022/10/02 08:00:49;;;;;;;29.63;23.92;;;;;;;16.95;93.56;99386.84;1719248;82;21387;-57
2022/10/02 08:04:02;;;;;;;27.77;22.20;;;;;;;16.95;93.56;99376.59;1766073;79;21417;-57
2022/10/02 08:07:12;;;;;;;31.77;23.65;;;;;;;16.97;93.57;99376.36;1800871;79;21358;-57
2022/10/02 08:10:20;;;;;;;26.05;21.85;;;;;;;16.97;93.63;99366.67;1766199;80;21730;-55
2022/10/02 08:13:38;;;;;;;26.55;21.55;;;;;;;16.98;93.63;99359.52;1737804;81;21332;-57
2022/10/02 08:16:50;;;;;;;24.87;21.40;;;;;;;17.00;93.73;99355.16;1737662;82;21745;-56
2022/10/02 08:19:57;;;;;;;27.98;21.35;;;;;;;17.04;93.80;99345.28;1738147;81;21249;-58
2022/10/02 08:23:13;;;;;;;24.67;21.07;;;;;;;17.08;93.80;99339.55;1738686;82;21193;-57
2022/10/02 08:26:41;;;;;;;25.45;20.72;;;;;;;17.10;93.82;99323.56;1800692;79;21193;-57
2022/10/02 08:30:08;;;;;;;25.52;20.48;;;;;;;17.17;93.93;99332.59;1767875;80;21225;-57
2022/10/02 08:33:28;;;;;;;25.45;21.33;;;;;;;17.22;93.96;99332.13;1768310;80;21201;-58
2022/10/02 08:36:59;;;;;;;27.40;22.00;;;;;;;17.29;94.06;99327.32;1778089;79;21225;-57
2022/10/02 08:40:39;;;;;;;25.85;21.23;;;;;;;17.37;94.13;99299.27;1779690;79;21193;-58
2022/10/02 08:44:01;;;;;;;28.00;22.30;;;;;;;17.46;94.17;99280.36;1774946;80;21182;-57
2022/10/02 08:47:31;;;;;;;24.75;21.60;;;;;;;17.53;94.12;99263.08;1765859;81;21279;-57
2022/10/02 08:51:19;;;;;;;27.37;22.10;;;;;;;17.60;94.24;99248.56;1767832;80;21182;-58
2022/10/02 08:54:52;;;;;;;33.13;23.52;;;;;;;17.67;94.26;99239.01;1767792;80;21193;-57
2022/10/02 08:58:26;;;;;;;29.63;23.35;;;;;;;17.74;94.24;99230.55;1768486;80;21166;-58
2022/10/02 09:02:26;;;;;;;31.23;23.60;;;;;;;17.81;94.22;99222.91;1768252;80;21248;-61
2022/10/02 09:06:37;;;;;;;30.68;24.57;;;;;;;17.88;94.28;99216.67;1762523;80;21224;-58
2022/10/02 09:10:28;;;;;;;28.92;23.95;;;;;;;17.93;94.28;99211.23;1736987;81;21221;-59
2022/10/02 09:14:21;;;;;;;28.40;23.15;;;;;;;17.98;94.21;99214.08;1737929;81;21228;-56
2022/10/02 09:17:40;;;;;;;30.62;22.27;;;;;;;17.97;94.00;99212.38;1737050;82;21193;-57
2022/10/02 09:21:24;;;;;;;26.77;22.05;;;;;;;17.93;93.96;99202.91;1739299;80;21785;-57
2022/10/02 09:25:10;;;;;;;29.70;22.17;;;;;;;17.93;94.01;99190.45;1738268;81;21319;-56
2022/10/02 09:28:45;;;;;;;29.57;20.43;;;;;;;17.96;94.03;99183.56;1738549;81;21300;-58
2022/10/02 09:32:12;;;;;;;24.25;20.12;;;;;;;17.98;94.08;99172.55;1742576;81;21268;-56
2022/10/02 09:36:00;;;;;;;26.45;20.48;;;;;;;17.99;94.03;99170.05;1713044;82;21232;-57
2022/10/02 09:39:50;;;;;;;25.97;19.85;;;;;;;17.96;93.95;99170.56;1772334;78;21390;-56
2022/10/02 09:43:09;;;;;;;24.20;17.00;;;;;;;18.01;94.15;99166.50;1741589;82;21189;-56
2022/10/02 09:46:41;;;;;;;27.30;18.30;;;;;;;18.07;94.18;99159.94;1781475;80;21212;-55
2022/10/02 09:50:05;;;;;;;22.58;17.05;;;;;;;18.09;94.07;99157.76;1775189;79;21201;-58
2022/10/02 09:53:29;;;;;;;25.40;16.90;;;;;;;18.08;93.97;99147.75;1733836;81;21852;-57
2022/10/02 09:56:59;;;;;;;22.80;15.80;;;;;;;18.04;93.85;99148.52;1762265;80;21224;-58
2022/10/02 10:00:42;;;;;;;20.05;14.15;;;;;;;17.99;93.82;99143.75;1787814;78;22511;-57
2022/10/02 10:04:11;;;;;;;19.10;13.85;;;;;;;17.94;93.82;99138.13;1786179;79;21757;-59
2022/10/02 10:07:51;;;;;;;21.05;13.72;;;;;;;17.93;93.92;99135.61;1774486;79;21205;-57
2022/10/02 10:11:05;;;;;;;17.52;12.93;;;;;;;17.94;93.97;99125.66;1787099;78;21188;-59
2022/10/02 10:14:51;;;;;;;17.37;13.48;;;;;;;17.96;93.95;99115.19;1786495;79;21210;-57
2022/10/02 10:18:18;;;;;;;17.20;12.82;;;;;;;17.98;93.96;99108.00;1771296;79;21189;-58
2022/10/02 10:21:54;;;;;;;18.87;12.35;;;;;;;17.98;93.95;99093.63;1782617;80;21190;-57
2022/10/02 10:25:21;;;;;;;18.52;12.00;;;;;;;17.97;93.96;99087.77;1786526;79;21860;-58
2022/10/02 10:28:55;;;;;;;14.83;11.50;;;;;;;17.96;94.00;99065.34;1781442;78;21358;-57
2022/10/02 10:32:59;;;;;;;17.77;11.95;;;;;;;17.97;94.10;99071.16;1725425;82;21189;-58
2022/10/02 10:40:17;;;;;;;15.08;12.35;;;;;;;17.89;94.09;99060.52;1762368;81;21252;-56
2022/10/02 10:44:15;;;;;;;16.45;12.37;;;;;;;17.87;94.14;99052.47;1732208;82;21220;-57
2022/10/02 10:47:41;;;;;;;17.15;12.60;;;;;;;17.84;94.16;99041.06;1706813;83;21218;-58
2022/10/02 10:51:13;;;;;;;16.80;10.53;;;;;;;17.77;94.12;99040.42;1746966;80;21333;-58
2022/10/02 10:54:50;;;;;;;14.98;11.80;;;;;;;17.71;94.15;99038.67;1741354;81;21243;-58
2022/10/02 10:58:11;;;;;;;13.90;11.03;;;;;;;17.66;94.23;99035.83;1736587;82;21220;-58
2022/10/02 11:01:57;;;;;;;19.67;12.07;;;;;;;17.65;94.38;99016.14;1733083;82;21343;-56
2022/10/02 11:05:43;;;;;;;14.75;10.68;;;;;;;17.66;94.44;99020.61;1725008;83;21855;-58
2022/10/02 11:09:25;;;;;;;16.35;11.73;;;;;;;17.64;94.45;99004.26;1737782;82;21239;-56
2022/10/02 11:12:42;;;;;;;16.10;11.12;;;;;;;17.58;94.41;98996.13;1749940;81;21540;-56
2022/10/02 11:16:15;;;;;;;14.38;11.40;;;;;;;17.55;94.46;98992.50;1776173;80;21200;-56
2022/10/02 11:19:51;;;;;;;16.45;10.98;;;;;;;17.53;94.56;98977.53;1775769;81;21394;-57
2022/10/02 11:23:27;;;;;;;16.75;11.40;;;;;;;17.53;94.60;98967.00;1767565;81;21819;-57
2022/10/02 11:27:04;;;;;;;13.43;10.58;;;;;;;17.48;94.58;98971.07;1776053;81;21394;-58
2022/10/02 11:30:34;;;;;;;11.65;9.35;;;;;;;17.44;94.61;98976.80;1767172;81;21213;-56
2022/10/02 11:34:22;;;;;;;13.93;9.28;;;;;;;17.38;94.65;98969.49;1767632;80;21389;-56
2022/10/02 11:38:13;;;;;;;10.82;8.60;;;;;;;17.33;94.76;98961.15;1768103;78;21252;-57
2022/10/02 11:42:04;;;;;;;14.33;9.93;;;;;;;17.28;94.86;98955.53;1734056;82;21750;-56
2022/10/02 11:46:14;;;;;;;12.75;8.78;;;;;;;17.24;94.91;98952.97;1768455;80;21821;-55
2022/10/02 11:50:00;;;;;;;12.10;9.28;;;;;;;17.22;95.10;98933.86;1768500;80;21201;-56
2022/10/02 11:53:41;;;;;;;12.25;9.13;;;;;;;17.22;95.19;98934.42;1768412;81;21236;-56
2022/10/02 11:57:00;;;;;;;11.40;8.60;;;;;;;17.22;95.25;98928.89;1768459;81;21220;-55
2022/10/02 12:00:34;;;;;;;8.28;7.47;;;;;;;17.21;95.35;98918.91;1768766;80;21189;-56
2022/10/02 12:04:17;;;;;;;10.25;8.50;;;;;;;17.21;95.43;98912.84;1737743;81;21201;-56
2022/10/02 12:07:40;;;;;;;10.05;8.03;;;;;;;17.21;95.40;98907.84;1737413;82;21379;-55
2022/10/02 12:11:05;;;;;;;11.20;8.45;;;;;;;17.20;95.42;98895.12;1737368;80;21375;-55
2022/10/02 12:14:43;;;;;;;10.45;8.18;;;;;;;17.20;95.42;98879.91;1737863;81;21233;-55
2022/10/02 12:18:25;;;;;;;13.95;8.73;;;;;;;17.19;95.45;98883.20;1737484;82;21201;-55
2022/10/02 12:29:52;;;;;;;9.78;8.33;;;;;;;17.16;95.62;98864.36;1679836;85;21439;-57
2022/10/02 12:33:22;;;;;;;10.25;7.92;;;;;;;17.16;95.65;98862.98;1679808;85;21237;-56
2022/10/02 12:36:50;;;;;;;10.68;7.70;;;;;;;17.16;95.77;98853.84;1768078;80;21276;-58
2022/10/02 12:40:04;;;;;;;5.97;5.37;;;;;;;17.18;95.89;98855.28;1769894;79;21213;-58
2022/10/02 12:43:52;;;;;;;7.25;5.25;;;;;;;17.18;95.87;98856.66;1805315;79;21244;-58
2022/10/02 12:47:31;;;;;;;12.82;11.57;;;;;;;17.16;95.89;98867.66;1805913;79;21824;-56
2022/10/02 12:51:16;;;;;;;15.30;13.68;;;;;;;17.11;95.83;98864.86;1804967;78;21216;-60
2022/10/02 12:54:47;;;;;;;15.15;12.93;;;;;;;17.06;95.78;98870.30;1804866;78;21259;-57
2022/10/02 12:58:17;;;;;;;13.50;12.05;;;;;;;17.01;95.70;98874.38;1773153;80;21717;-58
2022/10/02 13:01:43;;;;;;;15.08;13.48;;;;;;;16.96;95.57;98872.91;1782349;79;21269;-57
2022/10/02 13:05:26;;;;;;;15.23;12.50;;;;;;;16.89;95.57;98873.08;1770570;80;21211;-59
2022/10/02 13:09:04;;;;;;;15.40;12.30;;;;;;;16.81;95.51;98878.22;1769136;79;21355;-57
2022/10/02 13:12:38;;;;;;;16.85;12.13;;;;;;;16.71;95.54;98885.80;1769296;79;21860;-58
2022/10/02 13:16:24;;;;;;;15.13;11.78;;;;;;;16.63;95.61;98883.98;1768438;80;21225;-58
2022/10/02 13:19:55;;;;;;;12.80;11.50;;;;;;;16.58;95.60;98882.52;1766890;81;21189;-58
2022/10/02 13:23:30;;;;;;;15.85;14.03;;;;;;;16.51;95.66;98884.62;1766956;80;21210;-57
2022/10/02 13:27:08;;;;;;;21.33;15.38;;;;;;;16.46;95.70;98881.77;1765845;80;21218;-57
2022/10/02 13:30:29;;;;;;;18.37;16.30;;;;;;;16.42;95.78;98877.25;1767514;80;21225;-58
2022/10/02 13:34:13;;;;;;;17.57;15.73;;;;;;;16.40;95.86;98879.41;1777508;79;21315;-58
2022/10/02 13:38:05;;;;;;;18.60;16.80;;;;;;;16.38;95.95;98881.58;1805338;79;21535;-57
2022/10/02 13:41:37;;;;;;;18.82;16.17;;;;;;;16.38;96.04;98876.91;1767910;79;21260;-57
2022/10/02 13:45:04;;;;;;;18.60;16.20;;;;;;;16.39;96.12;98874.42;1723296;82;21224;-58
2022/10/02 13:48:41;;;;;;;17.42;15.63;;;;;;;16.39;96.09;98876.38;1725037;81;21706;-59
2022/10/02 13:52:04;;;;;;;17.20;15.18;;;;;;;16.37;96.12;98871.63;1724979;83;21782;-59
2022/10/02 13:55:34;;;;;;;15.60;13.08;;;;;;;16.33;96.14;98875.43;1752683;80;21345;-57
2022/10/02 13:59:06;;;;;;;13.83;12.43;;;;;;;16.32;96.17;98874.30;1770537;79;21161;-58
2022/10/02 14:02:25;;;;;;;11.38;9.95;;;;;;;16.28;96.15;98877.28;1789337;79;21319;-59
2022/10/02 14:05:55;;;;;;;11.28;10.08;;;;;;;16.26;96.15;98880.30;1753187;81;21227;-59
2022/10/02 14:09:19;;;;;;;11.90;9.88;;;;;;;16.23;96.11;98875.27;1788202;79;21398;-58
2022/10/02 14:12:47;;;;;;;9.73;8.38;;;;;;;16.21;96.12;98876.05;1791868;79;21200;-58
2022/10/02 14:16:07;;;;;;;10.08;9.03;;;;;;;16.18;96.13;98869.65;1793297;79;21311;-59
2022/10/02 14:20:02;;;;;;;10.65;9.28;;;;;;;16.14;96.09;98870.40;1772515;79;21225;-60
2022/10/02 14:23:26;;;;;;;10.63;8.03;;;;;;;16.11;96.11;98869.52;1725219;83;21245;-59
2022/10/02 14:27:07;;;;;;;10.55;8.58;;;;;;;16.07;96.10;98869.70;1752345;81;21260;-58
2022/10/02 14:30:24;;;;;;;8.90;7.97;;;;;;;16.03;96.11;98870.73;1725042;83;21237;-58
2022/10/02 14:33:52;;;;;;;12.43;7.78;;;;;;;16.00;96.11;98878.13;1731176;81;21200;-59
2022/10/02 14:37:32;;;;;;;9.78;7.95;;;;;;;15.96;96.11;98871.45;1725734;81;21197;-58
2022/10/02 14:41:00;;;;;;;10.13;8.08;;;;;;;15.93;96.09;98877.46;1747188;80;21281;-60
2022/10/02 14:44:28;;;;;;;8.90;7.95;;;;;;;15.92;96.11;98877.71;1735665;82;21217;-61
2022/10/02 14:47:50;;;;;;;15.90;9.95;;;;;;;15.88;96.08;98884.80;1720380;83;21260;-58
2022/10/02 14:51:09;;;;;;;12.50;9.45;;;;;;;15.83;96.08;98889.67;1720758;82;21213;-59
2022/10/02 14:54:54;;;;;;;8.83;7.45;;;;;;;15.80;96.07;98887.94;1733968;81;21379;-59
2022/10/02 14:58:53;;;;;;;8.65;7.45;;;;;;;15.78;96.11;98887.34;1726518;82;21217;-59
2022/10/02 15:02:16;;;;;;;7.55;6.75;;;;;;;15.74;96.09;98881.50;1727823;82;21387;-59
2022/10/02 15:06:01;;;;;;;7.22;6.45;;;;;;;15.71;96.11;98872.87;1779004;80;21461;-58
2022/10/02 15:09:24;;;;;;;8.75;7.03;;;;;;;15.69;96.12;98869.51;1778732;80;21181;-58
2022/10/02 15:12:42;;;;;;;10.20;6.87;;;;;;;15.66;96.16;98869.47;1770555;81;21201;-59
2022/10/02 15:19:09;;;;;;;5.75;5.15;;;;;;;15.62;96.25;98877.11;1743165;80;21252;-58
2022/10/02 15:22:24;;;;;;;6.03;4.17;;;;;;;15.60;96.23;98883.40;1726875;82;21189;-57
2022/10/02 15:25:47;;;;;;;3.20;2.90;;;;;;;15.53;96.22;98896.48;1778707;80;21919;-57
2022/10/02 15:29:21;;;;;;;;;;;;;;;15.48;96.19;98892.23;1778326;80;21209;-57
2022/10/02 15:32:58;;;;;;;3.67;2.40;;;;;;;15.42;96.13;98887.16;1778273;80;20201;-56
2022/10/02 15:36:21;;;;;;;2.75;2.05;;;;;;;15.36;96.07;98900.52;1749722;81;21176;-59
2022/10/02 15:40:07;;;;;;;5.25;2.20;;;;;;;15.19;95.86;98909.20;1712280;82;21346;-58
2022/10/02 15:43:24;;;;;;;4.45;2.02;;;;;;;15.03;95.59;98914.09;1796939;79;21276;-58
2022/10/02 15:46:41;;;;;;;4.78;1.90;;;;;;;14.83;95.26;98909.46;1799924;79;21189;-58
2022/10/02 15:49:57;;;;;;;4.25;2.12;;;;;;;14.68;95.09;98925.63;1779949;79;21182;-59
2022/10/02 15:53:35;;;;;;;7.00;2.45;;;;;;;14.54;94.95;98923.61;1788922;79;21220;-57
2022/10/02 15:57:23;;;;;;;4.25;2.00;;;;;;;14.43;94.88;98924.43;1788577;79;21201;-58
2022/10/02 16:00:30;;;;;;;4.45;1.85;;;;;;;14.33;94.89;98924.72;1730407;82;21220;-59
2022/10/02 16:04:14;;;;;;;2.52;2.00;;;;;;;14.25;94.86;98940.19;1734447;82;21196;-58
2022/10/02 16:07:53;;;;;;;4.47;2.30;;;;;;;14.17;94.87;98933.61;1789797;79;21742;-58
2022/10/02 16:11:19;;;;;;;2.80;1.90;;;;;;;14.11;94.82;98927.66;1786491;79;21197;-58
2022/10/02 16:15:04;;;;;;;5.80;1.95;;;;;;;14.05;94.82;98928.05;1787889;79;21264;-58